Time;durP1;ratioP1;P1;durP2;ratioP2;P2;SDS_P1;SDS_P2;PMS_P1;PMS_P2;Temp;Humidity;BMP_temperature;BMP_pressure;BME280_temperature;BME280_humidity;BME280_pressure;Samples;Min_cycle;Max_cycle;Signal;HPM_P1;HPM_P2
2024/04/23 00:00:14;;;;;;;8.68;3.42;;;23.80;99.90;;;;;;5381512;26;19997;-52
2024/04/23 00:02:40;;;;;;;5.55;3.10;;;23.80;99.90;;;;;;5380926;26;20095;-51
2024/04/23 00:05:06;;;;;;;5.57;3.28;;;23.80;99.90;;;;;;5380866;26;20011;-52
2024/04/23 00:07:32;;;;;;;5.25;3.10;;;23.80;99.90;;;;;;5380612;26;19996;-51
2024/04/23 00:09:57;;;;;;;4.63;2.85;;;23.80;99.90;;;;;;5380986;26;20456;-52
2024/04/23 00:12:23;;;;;;;4.90;3.28;;;23.80;99.90;;;;;;5381225;26;20357;-52
2024/04/23 00:14:49;;;;;;;4.20;2.63;;;23.80;99.90;;;;;;5381098;26;20444;-52
2024/04/23 00:17:15;;;;;;;6.18;3.60;;;23.80;99.90;;;;;;5381286;26;20008;-52
2024/04/23 00:19:40;;;;;;;5.97;3.05;;;23.80;99.90;;;;;;5379305;26;19997;-52
2024/04/23 00:22:06;;;;;;;5.47;2.97;;;23.80;99.90;;;;;;5380881;26;20493;-52
2024/04/23 00:24:32;;;;;;;6.43;3.10;;;23.80;99.90;;;;;;5380851;26;20093;-51
2024/04/23 00:26:59;;;;;;;5.90;2.90;;;23.80;99.90;;;;;;5381056;26;20004;-52
2024/04/23 00:29:27;;;;;;;7.32;3.45;;;23.80;99.90;;;;;;5380944;26;20012;-51
2024/04/23 00:31:53;;;;;;;4.38;2.67;;;23.80;99.90;;;;;;5380865;26;20008;-52
2024/04/23 00:34:19;;;;;;;5.60;3.42;;;23.80;99.90;;;;;;5380757;26;20514;-52
2024/04/23 00:36:51;;;;;;;4.95;2.95;;;23.70;99.90;;;;;;5380760;26;20000;-52
2024/04/23 00:39:17;;;;;;;7.82;4.00;;;23.80;99.90;;;;;;5362016;26;20000;-52
2024/04/23 00:41:43;;;;;;;6.25;3.15;;;23.70;99.90;;;;;;5360641;26;20001;-51
2024/04/23 00:44:08;;;;;;;7.10;3.45;;;23.70;99.90;;;;;;5376757;26;20004;-52
2024/04/23 00:46:36;;;;;;;5.75;2.85;;;23.70;99.90;;;;;;5379078;26;19997;-52
2024/04/23 00:49:02;;;;;;;4.97;2.50;;;23.70;99.90;;;;;;5381046;26;19996;-52
2024/04/23 00:51:29;;;;;;;6.78;2.80;;;23.70;99.90;;;;;;5381099;26;20333;-52
2024/04/23 00:53:55;;;;;;;6.13;3.42;;;23.70;99.90;;;;;;5381189;26;20444;-52
2024/04/23 00:56:22;;;;;;;6.32;3.38;;;23.70;99.90;;;;;;5380725;26;20008;-52
2024/04/23 00:58:48;;;;;;;4.63;3.00;;;23.70;99.90;;;;;;5381808;26;20015;-51
2024/04/23 01:01:14;;;;;;;6.25;3.50;;;23.70;99.90;;;;;;5384190;26;20008;-52
2024/04/23 01:03:40;;;;;;;5.03;2.85;;;23.70;99.90;;;;;;5382222;26;20419;-52
2024/04/23 01:06:06;;;;;;;7.22;3.03;;;23.70;99.90;;;;;;5383646;26;19996;-53
2024/04/23 01:08:31;;;;;;;5.50;3.03;;;23.70;99.90;;;;;;5383827;26;20011;-52
2024/04/23 01:10:57;;;;;;;4.50;2.53;;;23.70;99.90;;;;;;5381691;26;19996;-52
2024/04/23 01:13:23;;;;;;;5.30;3.08;;;23.70;99.90;;;;;;5383258;26;20452;-52
2024/04/23 01:15:50;;;;;;;6.95;3.45;;;23.70;99.90;;;;;;5383384;26;20012;-52
2024/04/23 01:18:18;;;;;;;6.47;2.60;;;23.70;99.90;;;;;;5381585;26;20007;-52
2024/04/23 01:20:44;;;;;;;5.30;2.90;;;23.70;99.90;;;;;;5383423;26;20004;-52
2024/04/23 01:23:28;;;;;;;6.00;3.05;;;23.60;99.90;;;;;;5382129;26;20449;-53
2024/04/23 01:25:55;;;;;;;4.78;2.45;;;23.60;99.90;;;;;;5381283;26;20290;-52
2024/04/23 01:28:22;;;;;;;4.45;2.55;;;23.70;99.90;;;;;;5383271;26;20328;-52
2024/04/23 01:30:48;;;;;;;5.90;2.63;;;23.60;99.90;;;;;;5383431;26;20000;-52
2024/04/23 01:33:16;;;;;;;5.22;2.75;;;23.60;99.90;;;;;;5383142;26;20008;-52
2024/04/23 01:35:43;;;;;;;4.55;2.40;;;23.60;99.90;;;;;;5383340;26;20008;-52
2024/04/23 01:38:10;;;;;;;6.10;2.70;;;23.60;99.90;;;;;;5383076;26;19996;-52
2024/04/23 01:40:37;;;;;;;5.13;2.38;;;23.60;99.90;;;;;;5383095;26;20004;-52
2024/04/23 01:43:04;;;;;;;8.60;2.97;;;23.60;99.90;;;;;;5383241;26;20000;-52
2024/04/23 01:45:30;;;;;;;6.25;2.75;;;23.60;99.90;;;;;;5383170;26;20008;-52
2024/04/23 01:47:56;;;;;;;4.05;2.45;;;23.60;99.90;;;;;;5411032;26;19996;-52
2024/04/23 01:50:22;;;;;;;5.78;2.85;;;23.60;99.90;;;;;;5382820;26;20007;-52
2024/04/23 01:52:48;;;;;;;6.75;2.97;;;23.60;99.90;;;;;;5382926;26;20000;-53
2024/04/23 01:55:16;;;;;;;5.07;2.55;;;23.60;99.90;;;;;;5383147;26;20000;-52
2024/04/23 01:57:42;;;;;;;5.30;2.47;;;23.60;99.90;;;;;;5381676;26;20000;-53
2024/04/23 02:00:13;;;;;;;4.55;2.42;;;23.60;99.90;;;;;;5382890;26;19996;-53
2024/04/23 02:02:41;;;;;;;6.53;2.30;;;23.60;99.90;;;;;;5395793;21;20000;-54
2024/04/23 02:05:12;;;;;;;3.08;1.98;;;23.60;99.90;;;;;;5382941;26;20008;-53
2024/04/23 02:07:38;;;;;;;5.15;2.63;;;23.50;99.90;;;;;;5410995;26;20000;-53
2024/04/23 02:10:04;;;;;;;4.57;2.25;;;23.50;99.90;;;;;;5382796;26;19996;-54
2024/04/23 02:12:30;;;;;;;4.75;2.97;;;23.60;99.90;;;;;;5381116;26;20000;-54
2024/04/23 02:14:56;;;;;;;5.32;2.35;;;23.50;99.90;;;;;;5382674;26;20432;-53
2024/04/23 02:17:22;;;;;;;5.05;2.50;;;23.50;99.90;;;;;;5382606;26;19996;-54
2024/04/23 02:19:48;;;;;;;4.82;2.40;;;23.50;99.90;;;;;;5382585;26;20000;-54
2024/04/23 02:22:14;;;;;;;5.03;2.40;;;23.50;99.90;;;;;;5382800;26;19992;-54
2024/04/23 02:24:39;;;;;;;7.10;2.92;;;23.50;99.90;;;;;;5382633;26;19996;-54
2024/04/23 02:27:05;;;;;;;4.10;2.17;;;23.50;99.90;;;;;;5382579;26;20016;-54
2024/04/23 02:29:31;;;;;;;3.95;2.10;;;23.50;99.90;;;;;;5382516;26;20007;-54
2024/04/23 02:32:03;;;;;;;3.83;2.15;;;23.50;99.90;;;;;;5382352;26;20011;-54
2024/04/23 02:34:29;;;;;;;4.97;2.50;;;23.50;99.90;;;;;;5382364;26;20011;-54
2024/04/23 02:36:55;;;;;;;5.43;2.65;;;23.50;99.90;;;;;;5382469;26;20000;-54
2024/04/23 02:39:21;;;;;;;5.53;2.22;;;23.50;99.90;;;;;;5382458;26;20344;-55
2024/04/23 02:41:51;;;;;;;3.70;2.15;;;23.50;99.90;;;;;;5382684;26;20008;-54
2024/04/23 02:44:17;;;;;;;6.30;2.50;;;23.50;99.90;;;;;;5382806;26;20032;-54
2024/04/23 02:46:42;;;;;;;5.75;2.35;;;23.50;99.90;;;;;;5382624;26;20352;-53
2024/04/23 02:49:08;;;;;;;3.72;1.80;;;23.50;99.90;;;;;;5382038;26;20000;-53
2024/04/23 02:51:34;;;;;;;3.13;2.00;;;23.50;99.90;;;;;;5409897;26;20070;-53
2024/04/23 02:54:00;;;;;;;7.50;2.30;;;23.50;99.90;;;;;;5382081;26;20011;-54
2024/04/23 02:56:26;;;;;;;5.75;2.53;;;23.50;99.90;;;;;;5410086;26;20015;-54
2024/04/23 02:58:52;;;;;;;5.72;2.20;;;23.50;99.90;;;;;;5381840;26;20070;-54
2024/04/23 03:01:18;;;;;;;5.45;2.35;;;23.50;99.90;;;;;;5396467;21;20008;-56
2024/04/23 03:03:44;;;;;;;3.55;1.90;;;23.50;99.90;;;;;;5382301;26;20341;-50
2024/04/23 03:06:10;;;;;;;6.13;2.50;;;23.50;99.90;;;;;;5381980;26;20036;-50
2024/04/23 03:08:35;;;;;;;8.38;2.58;;;23.40;99.90;;;;;;5379722;26;19992;-50
2024/04/23 03:11:01;;;;;;;3.42;1.92;;;23.40;99.90;;;;;;5381906;26;20422;-51
2024/04/23 03:13:27;;;;;;;5.15;2.13;;;23.50;99.90;;;;;;5381887;26;20003;-51
2024/04/23 03:15:53;;;;;;;5.35;1.98;;;23.40;99.90;;;;;;5381840;26;20106;-50
2024/04/23 03:18:18;;;;;;;5.07;2.08;;;23.40;99.90;;;;;;5381956;26;20004;-50
2024/04/23 03:20:44;;;;;;;2.72;2.05;;;23.40;99.90;;;;;;5382243;26;20309;-50
2024/04/23 03:23:10;;;;;;;6.18;2.42;;;23.40;99.90;;;;;;5381742;26;20038;-51
2024/04/23 03:25:36;;;;;;;4.07;2.00;;;23.40;99.90;;;;;;5380071;26;19992;-50
2024/04/23 03:28:02;;;;;;;6.10;2.45;;;23.40;99.90;;;;;;5381841;26;20000;-49
2024/04/23 03:30:27;;;;;;;3.83;1.77;;;23.40;99.90;;;;;;5381817;26;19992;-49
2024/04/23 03:32:53;;;;;;;5.75;2.25;;;23.40;99.90;;;;;;5381378;26;20038;-50
2024/04/23 03:35:19;;;;;;;5.10;1.58;;;23.40;99.90;;;;;;5381804;26;20337;-49
2024/04/23 03:37:45;;;;;;;5.00;2.10;;;23.40;99.90;;;;;;5381532;26;20070;-50
2024/04/23 03:40:10;;;;;;;2.90;1.80;;;23.40;99.90;;;;;;5381613;26;20003;-49
2024/04/23 03:42:36;;;;;;;3.90;2.00;;;23.40;99.90;;;;;;5381473;26;19992;-50
2024/04/23 03:45:02;;;;;;;4.93;2.00;;;23.40;99.90;;;;;;5381738;26;19992;-50
2024/04/23 03:47:29;;;;;;;3.35;1.70;;;23.40;99.90;;;;;;5381213;26;19996;-51
2024/04/23 03:49:55;;;;;;;3.55;1.70;;;23.40;99.90;;;;;;5381426;26;19996;-51
2024/04/23 03:52:21;;;;;;;7.57;2.90;;;23.40;99.90;;;;;;5381580;26;20042;-51
2024/04/23 03:54:48;;;;;;;4.80;2.07;;;23.40;99.90;;;;;;5381617;26;20304;-51
2024/04/23 03:57:14;;;;;;;6.90;2.50;;;23.40;99.90;;;;;;5381365;26;20218;-55
2024/04/23 03:59:40;;;;;;;4.78;1.73;;;23.40;99.90;;;;;;5381382;26;20011;-53
2024/04/23 04:07:34;;;;;;;4.13;1.92;;;23.40;99.90;;;;;;5373378;26;20015;-51
2024/04/23 04:10:00;;;;;;;3.35;1.52;;;23.40;99.90;;;;;;5380594;26;20001;-50
2024/04/23 04:12:26;;;;;;;4.07;1.80;;;23.40;99.90;;;;;;5376395;26;19996;-51
2024/04/23 04:14:52;;;;;;;4.45;2.00;;;23.40;99.90;;;;;;5377319;26;20006;-51
2024/04/23 04:17:17;;;;;;;3.65;1.85;;;23.40;99.90;;;;;;5377486;26;20004;-51
2024/04/23 04:19:43;;;;;;;2.90;1.67;;;23.30;99.90;;;;;;5376976;26;19992;-51
2024/04/23 04:22:09;;;;;;;4.45;1.90;;;23.30;99.90;;;;;;5376157;26;20003;-53
2024/04/23 04:24:35;;;;;;;4.40;2.00;;;23.30;99.90;;;;;;5377174;26;19996;-50
2024/04/23 04:27:00;;;;;;;4.00;1.73;;;23.30;99.90;;;;;;5378277;26;19996;-51
2024/04/23 04:29:26;;;;;;;4.63;1.60;;;23.30;99.90;;;;;;5380787;26;19996;-51
2024/04/23 04:31:52;;;;;;;4.13;2.10;;;23.30;99.90;;;;;;5380903;26;19996;-51
2024/04/23 04:34:18;;;;;;;3.83;1.60;;;23.30;99.90;;;;;;5379242;26;19993;-51
2024/04/23 04:36:44;;;;;;;3.97;2.08;;;23.30;99.90;;;;;;5380753;26;20336;-51
2024/04/23 04:39:09;;;;;;;3.28;2.10;;;23.30;99.90;;;;;;5380638;26;20437;-51
2024/04/23 04:41:35;;;;;;;4.93;2.00;;;23.30;99.90;;;;;;5380809;26;20083;-52
2024/04/23 04:44:01;;;;;;;5.25;1.92;;;23.30;99.90;;;;;;5379083;26;20038;-52
2024/04/23 04:46:27;;;;;;;4.82;2.20;;;23.40;99.90;;;;;;5380819;26;19996;-51
2024/04/23 04:48:52;;;;;;;6.45;2.85;;;23.30;99.90;;;;;;5380656;26;19996;-51
2024/04/23 04:51:19;;;;;;;6.43;2.25;;;23.30;99.90;;;;;;5380579;26;20008;-51
2024/04/23 04:53:45;;;;;;;8.32;3.00;;;23.30;99.90;;;;;;5378582;26;20007;-51
2024/04/23 04:56:11;;;;;;;5.40;2.47;;;23.30;99.90;;;;;;5380249;26;20332;-51
2024/04/23 04:58:37;;;;;;;5.88;1.90;;;23.30;99.90;;;;;;5380367;26;20449;-49
2024/04/23 05:01:04;;;;;;;3.75;2.03;;;23.30;99.90;;;;;;5376201;26;20008;-49
2024/04/23 05:03:30;;;;;;;3.53;1.73;;;23.30;99.90;;;;;;5377406;26;20015;-50
2024/04/23 05:05:55;;;;;;;3.40;1.98;;;23.30;99.90;;;;;;5376570;26;20322;-50
2024/04/23 05:08:21;;;;;;;4.88;2.03;;;23.30;99.90;;;;;;5376679;26;20012;-50
2024/04/23 05:10:47;;;;;;;5.00;1.75;;;23.30;99.90;;;;;;5374538;26;20033;-51
2024/04/23 05:13:13;;;;;;;4.75;1.80;;;23.30;99.90;;;;;;5374375;26;20000;-51
2024/04/23 05:15:39;;;;;;;5.78;1.85;;;23.30;99.90;;;;;;5376250;26;20348;-51
2024/04/23 05:18:05;;;;;;;4.20;2.20;;;23.30;99.90;;;;;;5377730;26;20004;-51
2024/04/23 05:20:31;;;;;;;6.72;2.83;;;23.30;99.90;;;;;;5408052;26;20008;-52
2024/04/23 05:22:57;;;;;;;6.45;2.88;;;23.30;99.90;;;;;;5377965;26;20000;-50
2024/04/23 05:25:22;;;;;;;7.72;2.67;;;23.30;99.90;;;;;;5380148;26;19996;-50
2024/04/23 05:27:48;;;;;;;6.78;3.22;;;23.30;99.90;;;;;;5379899;26;20102;-50
2024/04/23 05:32:46;;;;;;;5.70;3.08;;;23.30;99.90;;;;;;5379821;26;20372;-50
2024/04/23 05:33:00;;;;;;;6.65;3.35;;;23.30;99.90;;;;;;5382209;26;20008;-51
2024/04/23 05:35:25;;;;;;;9.02;4.15;;;23.30;99.90;;;;;;5383874;26;20010;-51
2024/04/23 05:37:51;;;;;;;8.40;3.67;;;23.30;99.90;;;;;;5383348;26;20000;-51
2024/04/23 05:40:17;;;;;;;6.43;3.42;;;23.30;99.90;;;;;;5383142;26;20007;-54
2024/04/23 05:42:43;;;;;;;9.20;3.92;;;23.30;99.90;;;;;;5383110;26;20000;-50
2024/04/23 05:45:08;;;;;;;9.32;4.03;;;23.30;99.90;;;;;;5383024;26;19996;-51
2024/04/23 05:48:12;;;;;;;11.02;4.70;;;23.20;99.90;;;;;;5382919;26;19996;-52
2024/04/23 05:51:15;;;;;;;9.10;3.85;;;23.30;99.90;;;;;;5382847;26;20011;-52
2024/04/23 05:54:18;;;;;;;8.77;4.70;;;23.20;99.90;;;;;;5382755;26;20000;-51
2024/04/23 05:56:44;;;;;;;8.50;3.97;;;23.20;99.90;;;;;;5382998;26;20412;-52
2024/04/23 05:59:10;;;;;;;6.88;4.10;;;23.20;99.90;;;;;;5382714;26;19997;-52
2024/04/23 06:01:36;;;;;;;10.57;3.90;;;23.20;99.90;;;;;;5383030;26;20007;-52
2024/04/23 06:04:01;;;;;;;5.88;3.70;;;23.20;99.90;;;;;;5382941;26;20073;-51
2024/04/23 06:06:27;;;;;;;7.13;3.97;;;23.20;99.90;;;;;;5382769;26;19996;-53
2024/04/23 06:08:53;;;;;;;9.95;4.65;;;23.20;99.90;;;;;;5382933;26;20000;-51
2024/04/23 06:11:19;;;;;;;7.88;4.32;;;23.20;99.90;;;;;;5382809;26;20436;-51
2024/04/23 06:13:49;;;;;;;8.18;4.20;;;23.20;99.90;;;;;;5382861;26;20069;-52
2024/04/23 06:16:15;;;;;;;8.18;5.00;;;23.20;99.90;;;;;;5382628;26;20000;-52
2024/04/23 06:18:40;;;;;;;8.82;5.05;;;23.20;99.90;;;;;;5410532;26;20007;-52
2024/04/23 06:21:08;;;;;;;9.35;5.60;;;23.20;99.90;;;;;;5382595;26;20103;-51
2024/04/23 06:23:34;;;;;;;10.93;5.68;;;23.20;99.90;;;;;;5382500;26;20000;-52
2024/04/23 06:25:59;;;;;;;7.68;4.88;;;23.20;99.90;;;;;;5382635;26;19996;-52
2024/04/23 06:28:25;;;;;;;10.57;5.25;;;23.20;99.90;;;;;;5410584;26;20000;-53
2024/04/23 06:30:51;;;;;;;10.30;5.53;;;23.20;99.90;;;;;;5382501;26;20008;-53
2024/04/23 06:33:17;;;;;;;11.68;4.97;;;23.20;99.90;;;;;;5382475;26;19996;-52
2024/04/23 06:35:42;;;;;;;8.13;4.75;;;23.20;99.90;;;;;;5382757;26;20509;-52
2024/04/23 06:38:08;;;;;;;8.75;5.50;;;23.20;99.90;;;;;;5382409;26;20000;-52
2024/04/23 06:40:34;;;;;;;9.27;5.38;;;23.20;99.90;;;;;;5382522;26;20074;-53
2024/04/23 06:43:00;;;;;;;10.25;5.72;;;23.20;99.90;;;;;;5381838;26;20583;-52
2024/04/23 06:45:26;;;;;;;9.23;6.38;;;23.20;99.90;;;;;;5382377;26;20437;-51
2024/04/23 06:47:51;;;;;;;11.90;6.25;;;23.20;99.90;;;;;;5380541;26;20011;-51
2024/04/23 06:50:17;;;;;;;9.70;5.97;;;23.20;99.90;;;;;;5382351;26;20007;-52
2024/04/23 06:52:43;;;;;;;12.90;6.78;;;23.20;99.90;;;;;;5382214;26;20000;-51
2024/04/23 06:55:09;;;;;;;10.68;6.25;;;23.20;99.90;;;;;;5409953;26;20008;-51
2024/04/23 06:57:34;;;;;;;10.50;5.13;;;23.20;99.90;;;;;;5382354;26;20089;-52
2024/04/23 07:00:00;;;;;;;10.20;5.78;;;23.20;99.90;;;;;;5409813;26;20360;-49
2024/04/23 07:02:26;;;;;;;11.40;5.25;;;23.20;99.90;;;;;;5380254;26;20028;-50
2024/04/23 07:04:52;;;;;;;10.23;6.28;;;23.20;99.90;;;;;;5381968;26;20007;-51
2024/04/23 07:07:18;;;;;;;9.73;6.20;;;23.20;99.90;;;;;;5380016;26;20006;-50
2024/04/23 07:09:43;;;;;;;12.65;6.20;;;23.20;99.90;;;;;;5381970;26;20000;-51
2024/04/23 07:12:09;;;;;;;12.32;5.55;;;23.20;99.90;;;;;;5375223;26;20024;-51
2024/04/23 07:14:35;;;;;;;9.98;5.15;;;23.20;99.90;;;;;;5354457;26;20008;-51
2024/04/23 07:17:01;;;;;;;10.02;5.40;;;23.20;99.90;;;;;;5382915;26;20036;-52
2024/04/23 07:19:26;;;;;;;8.60;4.72;;;23.20;99.90;;;;;;5381524;26;20040;-52
2024/04/23 07:21:52;;;;;;;9.63;5.60;;;23.20;99.90;;;;;;5381054;26;20004;-51
2024/04/23 07:24:18;;;;;;;9.43;5.13;;;23.20;99.90;;;;;;5379583;26;20086;-51
2024/04/23 07:26:45;;;;;;;9.38;4.70;;;23.20;99.90;;;;;;5380919;26;20011;-52
2024/04/23 07:29:11;;;;;;;10.40;6.03;;;23.20;99.90;;;;;;5381237;26;20004;-52
2024/04/23 07:31:37;;;;;;;10.20;5.32;;;23.20;99.90;;;;;;5408751;26;20448;-52
2024/04/23 07:34:03;;;;;;;6.78;4.60;;;23.20;99.90;;;;;;5380879;26;20011;-51
2024/04/23 07:36:29;;;;;;;10.32;5.65;;;23.20;99.90;;;;;;5408680;26;20023;-52
2024/04/23 07:38:55;;;;;;;9.68;5.05;;;23.20;99.90;;;;;;5390004;26;20011;-52
2024/04/23 07:41:20;;;;;;;9.15;5.18;;;23.20;99.90;;;;;;5350915;26;20486;-52
2024/04/23 07:43:46;;;;;;;9.32;4.82;;;23.20;99.90;;;;;;5342849;26;20475;-52
2024/04/23 07:46:12;;;;;;;9.85;5.20;;;23.20;99.90;;;;;;5342697;26;20372;-52
2024/04/23 07:48:38;;;;;;;7.65;4.88;;;23.20;99.90;;;;;;5342647;26;20012;-52
2024/04/23 07:51:04;;;;;;;8.18;5.05;;;23.20;99.90;;;;;;5342628;26;20083;-52
2024/04/23 07:53:31;;;;;;;7.47;4.70;;;23.20;99.90;;;;;;5342727;26;20008;-52
2024/04/23 07:55:57;;;;;;;8.27;5.13;;;23.20;99.90;;;;;;5342728;26;20391;-52
2024/04/23 07:58:23;;;;;;;8.25;4.68;;;23.20;99.90;;;;;;5346371;26;20342;-53
2024/04/23 08:00:49;;;;;;;7.32;4.60;;;23.20;99.90;;;;;;5346058;26;20001;-51
2024/04/23 08:03:15;;;;;;;10.57;4.85;;;23.20;99.90;;;;;;5344310;26;20065;-53
2024/04/23 08:05:41;;;;;;;8.85;5.05;;;23.20;99.90;;;;;;5346127;26;20011;-52
2024/04/23 08:08:07;;;;;;;8.43;4.80;;;23.20;99.90;;;;;;5373545;26;20005;-52
2024/04/23 08:10:33;;;;;;;6.93;4.18;;;23.20;99.90;;;;;;5373723;26;20040;-51
2024/04/23 08:12:58;;;;;;;6.75;4.70;;;23.20;99.90;;;;;;5373290;26;19996;-52
2024/04/23 08:15:24;;;;;;;8.88;4.68;;;23.20;99.90;;;;;;5346207;26;20476;-52
2024/04/23 08:17:50;;;;;;;7.20;3.85;;;23.20;99.90;;;;;;5346116;26;20031;-51
2024/04/23 08:20:16;;;;;;;6.78;4.32;;;23.20;99.90;;;;;;5346016;26;20070;-50
2024/04/23 08:22:42;;;;;;;7.00;4.10;;;23.20;99.90;;;;;;5346051;26;19996;-51
2024/04/23 08:25:09;;;;;;;7.28;4.10;;;23.20;99.90;;;;;;5373231;26;19997;-52
2024/04/23 08:27:36;;;;;;;8.00;4.25;;;23.20;99.90;;;;;;5346248;26;20487;-52
2024/04/23 08:30:03;;;;;;;6.90;4.22;;;23.20;99.90;;;;;;5346530;26;20005;-53
2024/04/23 08:32:29;;;;;;;;;;;23.20;99.90;;;;;;5346228;26;20001;-51
2024/04/23 08:34:55;;;;;;;7.15;4.00;;;23.20;99.90;;;;;;5345400;26;20003;-53
2024/04/23 08:37:20;;;;;;;7.35;4.25;;;23.20;99.90;;;;;;5345840;26;20402;-52
2024/04/23 08:39:46;;;;;;;6.93;4.20;;;23.20;99.90;;;;;;5345630;26;20070;-53
2024/04/23 08:42:13;;;;;;;6.03;3.40;;;23.20;99.90;;;;;;5345790;26;20003;-52
2024/04/23 08:44:44;;;;;;;7.10;3.95;;;23.20;99.90;;;;;;5373058;26;20519;-51
2024/04/23 08:47:10;;;;;;;7.50;3.80;;;23.20;99.90;;;;;;5345435;26;20021;-51
2024/04/23 08:49:37;;;;;;;7.95;4.30;;;23.20;99.90;;;;;;5372816;26;20519;-52
2024/04/23 08:52:06;;;;;;;7.28;4.05;;;23.20;99.90;;;;;;5345582;26;20001;-51
2024/04/23 08:54:32;;;;;;;6.70;3.45;;;23.20;99.90;;;;;;5345733;26;19997;-52
2024/04/23 08:56:59;;;;;;;5.43;3.50;;;23.20;99.90;;;;;;5345437;26;20458;-52
2024/04/23 08:59:27;;;;;;;5.50;3.05;;;23.20;99.90;;;;;;5345603;26;20008;-52
2024/04/23 09:01:59;;;;;;;8.15;3.85;;;23.20;99.90;;;;;;5372750;26;20007;-50
2024/04/23 09:04:26;;;;;;;4.70;3.13;;;23.20;99.90;;;;;;5345322;26;20001;-51
2024/04/23 09:06:53;;;;;;;5.03;3.53;;;23.20;99.90;;;;;;5345890;26;20004;-51
2024/04/23 09:09:21;;;;;;;6.55;3.63;;;23.20;99.90;;;;;;5348506;26;20001;-52
2024/04/23 09:11:51;;;;;;;6.63;4.13;;;23.20;99.90;;;;;;5348231;26;19997;-51
2024/04/23 09:14:17;;;;;;;6.68;3.40;;;23.20;99.90;;;;;;5348391;26;20001;-52
2024/04/23 09:16:42;;;;;;;8.15;3.72;;;23.20;99.90;;;;;;5348118;26;20046;-51
2024/04/23 09:19:09;;;;;;;5.38;3.05;;;23.20;99.90;;;;;;5348403;26;20037;-51
2024/04/23 09:21:35;;;;;;;5.05;3.10;;;23.20;99.90;;;;;;5348499;26;20012;-51
2024/04/23 09:24:02;;;;;;;6.85;3.40;;;23.30;99.90;;;;;;5348388;26;19997;-50
2024/04/23 09:26:29;;;;;;;5.00;2.53;;;23.20;99.90;;;;;;5348302;26;20409;-50
2024/04/23 09:28:56;;;;;;;6.70;3.05;;;23.20;99.90;;;;;;5348188;26;20012;-50
2024/04/23 09:31:24;;;;;;;5.80;3.38;;;23.20;99.90;;;;;;5348401;26;19997;-52
2024/04/23 09:33:58;;;;;;;7.32;3.72;;;23.30;99.90;;;;;;5375682;26;20005;-51
2024/04/23 09:36:27;;;;;;;5.55;2.58;;;23.20;99.90;;;;;;5375629;26;20021;-51
2024/04/23 09:39:03;;;;;;;6.03;3.42;;;23.30;99.90;;;;;;5348105;26;20449;-51
2024/04/23 09:41:31;;;;;;;5.82;2.97;;;23.20;99.90;;;;;;5348085;26;20002;-51
2024/04/23 09:44:02;;;;;;;7.70;3.40;;;23.30;99.90;;;;;;5348024;26;19997;-51
2024/04/23 09:46:33;;;;;;;6.90;2.88;;;23.30;99.90;;;;;;5348195;26;20025;-51
2024/04/23 09:49:04;;;;;;;7.75;3.22;;;23.30;99.90;;;;;;5375481;26;20013;-52
2024/04/23 09:51:31;;;;;;;5.03;2.58;;;23.30;99.90;;;;;;5346259;26;20001;-51
2024/04/23 09:54:01;;;;;;;6.13;2.70;;;23.30;99.90;;;;;;5347765;26;20009;-51
2024/04/23 09:56:27;;;;;;;7.25;3.20;;;23.30;99.90;;;;;;5347991;26;20710;-51
2024/04/23 09:58:53;;;;;;;7.40;2.88;;;23.30;99.90;;;;;;5347996;26;20033;-52
2024/04/23 10:01:25;;;;;;;6.20;2.47;;;23.30;99.90;;;;;;5347810;26;20447;-52
2024/04/23 10:03:55;;;;;;;4.88;2.67;;;23.30;99.90;;;;;;5347905;26;20037;-52
2024/04/23 10:06:23;;;;;;;4.78;2.70;;;23.40;99.90;;;;;;5347772;26;19997;-52
2024/04/23 10:08:52;;;;;;;4.93;2.58;;;23.40;99.90;;;;;;5347695;26;19996;-51
2024/04/23 10:11:43;;;;;;;4.82;2.95;;;23.40;99.90;;;;;;5347993;26;20011;-51
2024/04/23 10:14:29;;;;;;;5.45;2.80;;;23.40;99.90;;;;;;5347871;26;20004;-51
2024/04/23 10:17:04;;;;;;;6.03;3.08;;;23.40;99.90;;;;;;5347514;26;20016;-52
2024/04/23 10:19:30;;;;;;;6.43;3.30;;;23.40;99.90;;;;;;5346342;26;20004;-51
2024/04/23 10:22:00;;;;;;;6.55;3.63;;;23.40;99.90;;;;;;5347554;26;20018;-51
2024/04/23 10:24:26;;;;;;;6.10;3.40;;;23.50;99.90;;;;;;5347620;26;20000;-51
2024/04/23 10:26:52;;;;;;;5.50;3.63;;;23.50;99.90;;;;;;5347675;26;19997;-51
2024/04/23 10:29:19;;;;;;;4.32;3.28;;;23.50;99.90;;;;;;5347377;26;20005;-50
2024/04/23 10:31:45;;;;;;;6.03;4.00;;;23.50;99.90;;;;;;5347379;26;19997;-51
2024/04/23 10:34:15;;;;;;;7.68;4.22;;;23.50;99.90;;;;;;5345867;26;20035;-51
2024/04/23 10:36:47;;;;;;;6.78;3.63;;;23.50;99.90;;;;;;5347643;26;19997;-51
2024/04/23 10:39:15;;;;;;;7.95;4.47;;;23.50;99.90;;;;;;5347313;26;19997;-51
2024/04/23 10:41:41;;;;;;;9.93;5.13;;;23.50;99.90;;;;;;5347641;26;20067;-52
2024/04/23 10:44:10;;;;;;;9.35;5.57;;;23.60;99.90;;;;;;5369648;26;20012;-52
2024/04/23 10:46:42;;;;;;;9.45;5.65;;;23.50;99.90;;;;;;5349778;26;20008;-51
2024/04/23 10:49:15;;;;;;;10.93;6.22;;;23.60;99.90;;;;;;5381710;26;20017;-52
2024/04/23 10:51:47;;;;;;;10.23;6.25;;;23.60;99.90;;;;;;5381156;26;20004;-53
2024/04/23 10:54:23;;;;;;;8.77;6.15;;;23.60;99.90;;;;;;5381866;26;20005;-53
2024/04/23 10:57:04;;;;;;;10.80;6.10;;;23.60;99.90;;;;;;5381446;26;19996;-52
2024/04/23 10:59:31;;;;;;;11.32;7.00;;;23.60;99.90;;;;;;5381681;26;20004;-54
2024/04/23 11:01:58;;;;;;;14.00;8.20;;;23.70;99.90;;;;;;5381084;26;20399;-53
2024/04/23 11:04:45;;;;;;;14.95;9.38;;;23.70;99.90;;;;;;5381569;26;20504;-53
2024/04/23 11:07:22;;;;;;;14.38;9.55;;;23.70;99.90;;;;;;5381272;26;20334;-52
2024/04/23 11:09:48;;;;;;;15.65;9.18;;;23.70;99.90;;;;;;5381537;26;20011;-52
2024/04/23 11:12:24;;;;;;;16.20;10.30;;;23.70;99.90;;;;;;5377212;26;20076;-52
2024/04/23 11:14:54;;;;;;;14.43;9.15;;;23.70;99.90;;;;;;5378531;26;20032;-52
2024/04/23 11:17:20;;;;;;;19.27;10.05;;;23.70;99.90;;;;;;5378214;26;20011;-54
2024/04/23 11:19:54;;;;;;;13.50;8.93;;;23.70;99.90;;;;;;5378228;26;20007;-53
2024/04/23 11:22:43;;;;;;;16.77;9.45;;;23.70;99.90;;;;;;5376367;26;19996;-53
2024/04/23 11:25:17;;;;;;;16.02;9.57;;;23.70;99.90;;;;;;5378529;26;19996;-52
2024/04/23 11:27:43;;;;;;;15.02;8.98;;;23.70;99.90;;;;;;5380725;26;20367;-51
2024/04/23 11:30:16;;;;;;;12.40;8.43;;;23.70;99.90;;;;;;5381403;26;20040;-52
2024/04/23 11:32:41;;;;;;;15.52;8.43;;;23.70;99.90;;;;;;5381621;26;20070;-51
2024/04/23 11:35:09;;;;;;;12.13;8.13;;;23.70;99.90;;;;;;5381601;26;20008;-52
2024/04/23 11:37:35;;;;;;;;;;;23.80;99.90;;;;;;5382041;26;20007;-52
2024/04/23 11:40:01;;;;;;;12.68;8.07;;;23.80;99.90;;;;;;5381274;26;19926;-52
2024/04/23 11:42:32;;;;;;;12.87;7.80;;;23.80;99.90;;;;;;5379601;26;20415;-52
2024/04/23 11:45:04;;;;;;;13.88;7.93;;;23.80;99.90;;;;;;5381653;26;20003;-52
2024/04/23 11:47:32;;;;;;;13.13;8.20;;;23.80;99.90;;;;;;5379624;26;20011;-51
2024/04/23 11:50:05;;;;;;;12.48;7.78;;;23.80;99.90;;;;;;5408839;26;20074;-52
2024/04/23 11:52:31;;;;;;;12.18;7.57;;;23.80;99.90;;;;;;5381344;26;20067;-52
2024/04/23 11:54:58;;;;;;;13.98;7.60;;;23.80;99.90;;;;;;5381320;26;19996;-51
2024/04/23 11:57:24;;;;;;;11.57;7.40;;;23.80;99.90;;;;;;5350516;26;20010;-52
2024/04/23 11:59:50;;;;;;;9.48;6.63;;;23.80;99.90;;;;;;5381434;26;20004;-51
2024/04/23 12:02:16;;;;;;;11.82;7.40;;;23.80;99.90;;;;;;5379343;26;20006;-51
2024/04/23 12:04:43;;;;;;;11.68;6.35;;;23.80;99.90;;;;;;5381424;26;19997;-51
2024/04/23 12:07:13;;;;;;;10.52;6.65;;;23.80;99.90;;;;;;5381245;26;20000;-51
2024/04/23 12:09:39;;;;;;;10.13;6.20;;;23.90;99.90;;;;;;5381175;26;20006;-52
2024/04/23 12:12:06;;;;;;;12.25;6.22;;;23.90;99.90;;;;;;5380859;26;20160;-52
2024/04/23 12:14:32;;;;;;;10.00;5.45;;;23.90;99.90;;;;;;5409035;26;19999;-52
2024/04/23 12:16:58;;;;;;;10.95;5.15;;;23.90;99.90;;;;;;5408923;26;20004;-51
2024/04/23 12:19:28;;;;;;;14.00;5.90;;;23.90;99.90;;;;;;5381049;26;19996;-52
2024/04/23 12:21:59;;;;;;;10.15;4.80;;;23.90;99.90;;;;;;5381021;26;19996;-51
2024/04/23 12:24:25;;;;;;;9.70;5.18;;;23.90;99.90;;;;;;5381050;26;20011;-52
2024/04/23 12:26:52;;;;;;;10.57;5.70;;;23.90;99.90;;;;;;5380977;26;19996;-51
2024/04/23 12:29:30;;;;;;;9.27;4.85;;;23.90;99.90;;;;;;5381004;26;19996;-52
2024/04/23 12:31:59;;;;;;;8.85;4.97;;;24.00;99.90;;;;;;5380852;26;20392;-52
2024/04/23 12:34:26;;;;;;;12.32;5.57;;;24.00;99.90;;;;;;5380790;26;19996;-52
2024/04/23 12:36:52;;;;;;;9.57;4.45;;;24.00;99.90;;;;;;5380982;26;20087;-52
2024/04/23 12:39:19;;;;;;;7.97;4.55;;;24.00;99.90;;;;;;5380962;26;20007;-52
2024/04/23 12:41:44;;;;;;;11.93;4.50;;;24.00;99.90;;;;;;5378113;26;20038;-53
2024/04/23 12:44:17;;;;;;;10.23;4.50;;;24.00;99.90;;;;;;5380655;26;20000;-52
2024/04/23 12:46:43;;;;;;;8.55;4.82;;;24.00;99.90;;;;;;5380750;26;20000;-52
2024/04/23 12:49:10;;;;;;;8.80;4.63;;;24.00;99.90;;;;;;5380544;26;20031;-52
2024/04/23 12:51:36;;;;;;;7.50;4.35;;;24.00;99.90;;;;;;5380404;26;20296;-52